Time;durP1;ratioP1;P1;durP2;ratioP2;P2;SDS_P1;SDS_P2;PMS_P1;PMS_P2;Temp;Humidity;BMP_temperature;BMP_pressure;BME280_temperature;BME280_humidity;BME280_pressure;Samples;Min_cycle;Max_cycle;Signal;HPM_P1;HPM_P2
2021/08/28 00:00:52;;;;;;;19.92;4.30;;;;;;;9.11;80.60;99919.14;2173916;80;21690;-86
2021/08/28 00:03:53;;;;;;;116.47;5.40;;;;;;;9.14;80.47;99919.63;2175697;80;20998;-84
2021/08/28 00:06:55;;;;;;;27.42;3.90;;;;;;;9.16;80.34;99914.19;2183399;79;21351;-86
2021/08/28 00:09:56;;;;;;;101.25;5.10;;;;;;;9.10;80.16;99911.70;2186656;80;21561;-86
2021/08/28 00:12:57;;;;;;;46.55;4.10;;;;;;;9.09;80.34;99915.81;2193077;80;20978;-84
2021/08/28 00:15:58;;;;;;;37.45;3.83;;;;;;;9.06;80.22;99919.61;2188018;80;21067;-86
2021/08/28 00:18:59;;;;;;;18.20;3.30;;;;;;;8.96;80.32;99919.77;2186519;80;21295;-86
2021/08/28 00:22:00;;;;;;;36.30;3.37;;;;;;;8.91;80.50;99914.63;2184591;80;22307;-86
2021/08/28 00:25:02;;;;;;;19.20;3.37;;;;;;;8.92;80.73;99914.95;2194296;80;21014;-84
2021/08/28 00:28:04;;;;;;;27.15;3.40;;;;;;;8.93;80.82;99913.97;2180725;80;20998;-85
2021/08/28 00:31:08;;;;;;;16.70;3.30;;;;;;;8.94;80.91;99904.53;2177918;80;21063;-85
2021/08/28 00:34:10;;;;;;;6.62;3.08;;;;;;;8.92;80.77;99917.09;2186633;80;21050;-87
2021/08/28 00:37:11;;;;;;;6.08;2.40;;;;;;;8.93;80.93;99908.69;2178306;80;20951;-85
2021/08/28 00:40:13;;;;;;;9.90;3.00;;;;;;;8.91;80.74;99911.47;2193205;80;21513;-85
2021/08/28 00:43:15;;;;;;;6.95;2.80;;;;;;;8.92;80.74;99914.45;2193421;80;20999;-86
2021/08/28 00:46:16;;;;;;;5.62;2.33;;;;;;;8.91;80.67;99914.12;2163459;81;20991;-84
2021/08/28 00:49:17;;;;;;;10.35;2.85;;;;;;;8.87;80.42;99918.09;2147660;80;21513;-85
2021/08/28 00:52:21;;;;;;;4.78;2.60;;;;;;;8.75;80.32;99922.00;2188361;79;21402;-86
2021/08/28 00:55:25;;;;;;;8.10;3.12;;;;;;;8.69;80.61;99918.67;2181377;80;21097;-85
2021/08/28 00:58:27;;;;;;;19.82;3.15;;;;;;;8.72;80.91;99924.97;2187301;80;20986;-86
2021/08/28 01:01:33;;;;;;;19.37;3.00;;;;;;;8.67;80.66;99923.28;2157822;82;21042;-86
2021/08/28 01:04:58;;;;;;;49.75;3.40;;;;;;;8.60;80.71;99924.92;2150577;82;21011;-86
2021/08/28 01:08:14;;;;;;;24.15;3.62;;;;;;;8.59;80.91;99929.86;2150290;82;20972;-86
2021/08/28 01:11:40;;;;;;;28.30;3.35;;;;;;;8.53;80.96;99925.56;2131348;82;21019;-88
2021/08/28 01:14:50;;;;;;;50.88;3.75;;;;;;;8.42;81.04;99932.45;2138207;82;21040;-87
2021/08/28 01:17:53;;;;;;;;;;;;;;;8.35;81.19;99926.59;2153629;82;21041;-85
2021/08/28 01:21:23;;;;;;;36.08;4.53;;;;;;;8.36;81.52;99935.66;2134622;81;20122;-84
2021/08/28 01:24:26;;;;;;;39.75;5.03;;;;;;;8.37;81.63;99929.41;2138781;80;21101;-85
2021/08/28 01:27:50;;;;;;;20.57;4.75;;;;;;;8.46;81.93;99940.89;2180869;80;21061;-84
2021/08/28 01:30:52;;;;;;;31.60;4.58;;;;;;;8.54;82.14;99929.03;2164487;80;21511;-85
2021/08/28 01:33:54;;;;;;;41.65;5.42;;;;;;;8.61;82.24;99927.89;2173525;80;21496;-85
2021/08/28 01:36:57;;;;;;;71.65;5.35;;;;;;;8.66;82.40;99929.58;2176538;80;21019;-86
2021/08/28 01:40:15;;;;;;;35.43;4.17;;;;;;;8.68;82.25;99936.86;2110774;80;21003;-85
2021/08/28 01:43:19;;;;;;;58.38;5.20;;;;;;;8.61;81.91;99941.94;2191960;80;21027;-86
2021/08/28 01:46:23;;;;;;;91.53;6.10;;;;;;;8.54;81.96;99946.22;2174699;80;21021;-84
2021/08/28 01:49:27;;;;;;;76.77;5.97;;;;;;;8.57;82.12;99945.91;2179927;80;21058;-85
2021/08/28 01:52:29;;;;;;;78.90;6.03;;;;;;;8.56;82.17;99943.40;2186610;80;21487;-85
2021/08/28 01:55:30;;;;;;;18.52;4.85;;;;;;;8.59;82.36;99940.44;2167389;80;21581;-84
2021/08/28 01:58:37;;;;;;;9.13;5.17;;;;;;;8.61;82.40;99946.41;2162190;80;21042;-85
2021/08/28 02:01:49;;;;;;;47.13;5.97;;;;;;;8.67;82.49;99938.69;2106598;81;21030;-84
2021/08/28 02:04:51;;;;;;;41.08;5.17;;;;;;;8.73;82.49;99937.22;2144031;80;21041;-84
2021/08/28 02:07:58;;;;;;;108.42;5.92;;;;;;;8.75;82.29;99937.88;2181150;80;21003;-88
2021/08/28 02:11:10;;;;;;;63.73;5.20;;;;;;;8.76;82.32;99936.91;2169155;80;21314;-88
2021/08/28 02:14:19;;;;;;;63.55;5.10;;;;;;;8.76;82.16;99927.64;2178279;79;20999;-88
2021/08/28 02:17:25;;;;;;;104.85;5.85;;;;;;;8.75;82.19;99929.44;2160863;80;21441;-86
2021/08/28 02:20:30;;;;;;;51.05;4.53;;;;;;;8.75;82.10;99925.97;2173337;80;21579;-88
2021/08/28 02:23:55;;;;;;;61.20;4.58;;;;;;;8.73;82.29;99930.11;2165115;80;21301;-87
2021/08/28 02:27:21;;;;;;;28.70;3.90;;;;;;;8.75;82.32;99932.58;2183077;80;21550;-87
2021/08/28 02:30:22;;;;;;;31.60;3.80;;;;;;;8.68;82.21;99927.61;2136984;80;21482;-88
2021/08/28 02:33:41;;;;;;;24.98;3.72;;;;;;;8.51;82.13;99928.85;2175754;80;21027;-86
2021/08/28 02:36:45;;;;;;;20.92;3.80;;;;;;;8.46;82.38;99932.45;2159722;80;21062;-88
2021/08/28 02:39:47;;;;;;;29.90;3.37;;;;;;;8.45;82.45;99933.95;2195249;80;21022;-89
2021/08/28 02:42:51;;;;;;;14.80;3.65;;;;;;;8.47;82.55;99932.78;2172385;79;21071;-88
2021/08/28 02:45:53;;;;;;;19.87;3.75;;;;;;;8.47;82.37;99935.42;2170949;80;21082;-88
2021/08/28 02:48:57;;;;;;;22.48;4.60;;;;;;;8.41;82.31;99933.41;2178114;80;20985;-88
2021/08/28 02:52:00;;;;;;;25.43;4.33;;;;;;;8.35;82.29;99930.55;2170845;80;21047;-86
2021/08/28 02:55:04;;;;;;;38.65;4.97;;;;;;;8.33;82.33;99937.80;2178029;80;21086;-88
2021/08/28 02:58:06;;;;;;;23.90;4.58;;;;;;;8.23;82.21;99933.95;2139302;81;21010;-88
2021/08/28 03:01:09;;;;;;;13.18;4.70;;;;;;;8.17;82.31;99934.59;2198328;80;22406;-88
2021/08/28 03:04:12;;;;;;;8.80;4.65;;;;;;;8.17;82.55;99936.73;2187262;80;21053;-88
2021/08/28 03:07:17;;;;;;;8.80;4.05;;;;;;;8.21;82.62;99935.92;2184508;80;21320;-87
2021/08/28 03:10:20;;;;;;;13.13;4.75;;;;;;;8.17;82.41;99936.73;2179251;81;21097;-87
2021/08/28 03:13:22;;;;;;;10.58;5.08;;;;;;;8.02;82.31;99939.09;2146581;80;21071;-87
2021/08/28 03:16:28;;;;;;;10.70;4.70;;;;;;;7.99;82.53;99939.40;2133399;82;21042;-87
2021/08/28 03:19:31;;;;;;;7.50;4.95;;;;;;;8.01;82.68;99941.90;2132554;82;21023;-87
2021/08/28 03:22:36;;;;;;;6.95;4.65;;;;;;;8.07;82.76;99947.38;2115203;82;21011;-88
2021/08/28 03:25:38;;;;;;;6.55;4.47;;;;;;;8.15;82.85;99948.44;2130187;82;21008;-87
2021/08/28 03:28:40;;;;;;;7.37;4.50;;;;;;;8.22;82.80;99953.42;2125567;82;21528;-86
2021/08/28 03:31:42;;;;;;;6.17;4.17;;;;;;;8.25;82.75;99946.50;2133666;82;21011;-87
2021/08/28 03:34:43;;;;;;;4.35;3.77;;;;;;;8.21;82.59;99949.13;2133242;82;21007;-83
2021/08/28 03:37:45;;;;;;;6.62;4.30;;;;;;;8.14;82.61;99952.05;2134967;82;21011;-83
2021/08/28 03:40:48;;;;;;;9.18;4.65;;;;;;;8.08;82.72;99960.09;2129309;82;21522;-84
2021/08/28 03:43:50;;;;;;;6.60;4.62;;;;;;;7.98;82.83;99963.34;2123875;82;21537;-85
2021/08/28 03:46:51;;;;;;;10.45;5.55;;;;;;;7.94;83.00;99965.48;2137763;82;20995;-84
2021/08/28 03:49:53;;;;;;;5.95;4.75;;;;;;;7.99;83.13;99963.67;2135514;82;21537;-86
2021/08/28 03:52:54;;;;;;;6.95;4.70;;;;;;;8.05;83.21;99958.62;2129683;82;21548;-84
2021/08/28 03:55:56;;;;;;;7.20;4.65;;;;;;;8.15;83.37;99956.37;2130219;82;20998;-84
2021/08/28 03:58:57;;;;;;;7.47;4.80;;;;;;;8.23;83.44;99956.42;2133487;82;21053;-83
2021/08/28 04:01:59;;;;;;;7.10;4.78;;;;;;;8.31;83.48;99953.34;2128789;82;21062;-84
2021/08/28 04:05:10;;;;;;;6.83;5.37;;;;;;;8.39;83.45;99953.92;2093782;82;21118;-85
2021/08/28 04:08:12;;;;;;;6.42;4.70;;;;;;;8.45;83.35;99954.61;2125836;82;21007;-86
2021/08/28 04:11:15;;;;;;;5.50;4.83;;;;;;;8.49;83.31;99953.80;2127548;82;21548;-84
2021/08/28 04:14:17;;;;;;;5.55;4.78;;;;;;;8.56;83.37;99953.98;2185105;80;21580;-85
2021/08/28 04:17:18;;;;;;;9.68;5.10;;;;;;;8.63;83.41;99951.05;2186316;80;21026;-85
2021/08/28 04:20:20;;;;;;;5.03;4.42;;;;;;;8.73;83.35;99952.59;2181013;79;21045;-85
2021/08/28 04:23:21;;;;;;;8.33;3.83;;;;;;;8.88;83.42;99953.31;2191530;80;20971;-84
2021/08/28 04:26:40;;;;;;;8.58;4.40;;;;;;;9.19;83.67;99954.90;2176861;80;21134;-85
2021/08/28 04:29:43;;;;;;;6.67;3.98;;;;;;;9.61;83.56;99947.36;2190550;80;21042;-85
2021/08/28 04:32:44;;;;;;;7.45;3.92;;;;;;;9.99;83.34;99947.16;2157812;81;21527;-85
2021/08/28 04:35:45;;;;;;;8.15;4.20;;;;;;;10.33;82.79;99947.48;2191861;80;20983;-86
2021/08/28 04:38:47;;;;;;;4.37;3.65;;;;;;;10.57;82.46;99955.06;2187566;80;21070;-85
2021/08/28 04:41:48;;;;;;;6.97;4.28;;;;;;;10.90;82.53;99953.13;2191138;80;21082;-86
2021/08/28 04:44:53;;;;;;;5.80;4.05;;;;;;;11.00;81.79;99951.88;2190314;80;20975;-86
2021/08/28 04:47:52;;;;;;;6.35;4.15;;;;;;;10.90;81.18;99959.25;2175276;80;21014;-84
2021/08/28 04:50:54;;;;;;;6.70;4.60;;;;;;;10.66;81.00;99954.85;2187237;80;21090;-86
2021/08/28 04:53:56;;;;;;;6.28;4.20;;;;;;;10.52;81.46;99954.23;2186927;80;21026;-85
2021/08/28 04:56:57;;;;;;;4.95;4.45;;;;;;;10.58;81.84;99960.69;2176378;80;21038;-86
2021/08/28 04:59:59;;;;;;;6.85;4.83;;;;;;;10.63;81.88;99968.47;2186202;80;21042;-86
2021/08/28 05:03:08;;;;;;;8.28;4.87;;;;;;;10.67;81.83;99957.85;2160814;80;21011;-85
2021/08/28 05:06:10;;;;;;;6.65;4.72;;;;;;;10.73;81.64;99965.63;2187979;80;21105;-86
2021/08/28 05:09:11;;;;;;;6.58;4.85;;;;;;;10.77;81.71;99963.77;2180757;80;21050;-85
2021/08/28 05:12:13;;;;;;;11.83;5.05;;;;;;;10.81;81.72;99958.94;2186827;80;21489;-85
2021/08/28 05:15:17;;;;;;;6.22;4.90;;;;;;;10.82;81.58;99954.48;2195459;80;21078;-87
2021/08/28 05:18:25;;;;;;;5.95;4.42;;;;;;;10.83;81.55;99960.10;2181338;79;21002;-86
2021/08/28 05:21:30;;;;;;;7.60;5.22;;;;;;;10.85;81.58;99962.09;2152136;80;21817;-85
2021/08/28 05:24:49;;;;;;;8.40;5.22;;;;;;;10.88;81.63;99958.59;2170918;80;21038;-83
2021/08/28 05:27:50;;;;;;;7.20;5.75;;;;;;;10.92;81.68;99961.72;2168294;79;20999;-86
2021/08/28 05:30:52;;;;;;;10.08;5.95;;;;;;;10.98;81.75;99968.98;2159716;80;21005;-84
2021/08/28 05:33:54;;;;;;;9.18;7.00;;;;;;;10.96;81.58;99967.84;2165313;80;21331;-86
2021/08/28 05:36:57;;;;;;;9.30;5.75;;;;;;;10.98;81.68;99967.66;2159902;80;21080;-86
2021/08/28 05:40:00;;;;;;;6.40;5.67;;;;;;;10.99;81.67;99964.02;2179938;80;21077;-87
2021/08/28 05:43:02;;;;;;;6.00;5.40;;;;;;;11.08;81.86;99970.94;2200655;80;21010;-86
2021/08/28 05:46:05;;;;;;;7.28;5.65;;;;;;;11.14;81.79;99970.23;2189127;80;21015;-86
2021/08/28 05:49:08;;;;;;;7.92;5.60;;;;;;;11.21;81.76;99973.05;2168193;80;21000;-86
2021/08/28 05:52:26;;;;;;;7.97;6.12;;;;;;;11.33;81.82;99977.45;2164844;79;21945;-87
2021/08/28 05:55:27;;;;;;;7.40;6.05;;;;;;;11.33;81.52;99970.31;2157667;79;21077;-86
2021/08/28 05:58:28;;;;;;;5.95;5.25;;;;;;;11.34;81.48;99979.92;2159662;80;21046;-86
2021/08/28 06:01:30;;;;;;;6.65;5.45;;;;;;;11.42;81.58;99979.88;2168657;80;21064;-86
2021/08/28 06:04:31;;;;;;;6.03;5.33;;;;;;;11.50;81.62;99988.81;2171051;79;21022;-85
2021/08/28 06:07:48;;;;;;;6.92;5.75;;;;;;;11.58;81.58;99980.28;2169316;80;21000;-86
2021/08/28 06:11:02;;;;;;;8.93;5.95;;;;;;;11.55;81.66;99981.15;2111533;80;21070;-85
2021/08/28 06:14:15;;;;;;;7.83;5.53;;;;;;;11.57;81.79;99981.30;2149817;80;21084;-85
2021/08/28 06:17:18;;;;;;;6.25;5.28;;;;;;;11.53;82.00;99961.38;2152013;81;21135;-87
2021/08/28 06:20:20;;;;;;;6.33;4.95;;;;;;;11.53;82.00;99961.38;2163521;82;20991;-86
2021/08/28 06:23:21;;;;;;;9.25;6.17;;;;;;;11.77;82.09;99984.78;2159004;81;20963;-86
2021/08/28 06:26:24;;;;;;;7.45;5.50;;;;;;;11.87;81.96;99977.44;2146235;81;21050;-86
2021/08/28 06:29:26;;;;;;;6.15;5.47;;;;;;;12.01;81.81;99979.82;2163912;82;21003;-85
2021/08/28 06:32:29;;;;;;;6.97;5.30;;;;;;;12.15;82.10;99979.54;2168535;81;21141;-85
2021/08/28 06:35:30;;;;;;;6.42;5.70;;;;;;;12.28;81.88;99980.58;2165151;81;20983;-85
2021/08/28 06:38:33;;;;;;;7.28;5.87;;;;;;;12.43;81.86;99980.59;2158768;81;21080;-85
2021/08/28 06:41:48;;;;;;;6.33;5.72;;;;;;;12.52;81.52;99978.16;2155079;81;21014;-86
2021/08/28 06:45:09;;;;;;;10.40;6.30;;;;;;;12.47;81.31;99979.23;2170030;81;21057;-85
2021/08/28 06:48:15;;;;;;;9.15;6.80;;;;;;;12.51;81.80;99978.36;2159292;81;21024;-84
2021/08/28 06:51:33;;;;;;;8.43;6.45;;;;;;;12.56;81.81;99974.14;1996975;88;21078;-85
2021/08/28 06:54:53;;;;;;;7.92;5.92;;;;;;;12.67;81.92;99980.84;2150179;81;21045;-85
2021/08/28 06:58:12;;;;;;;7.25;6.10;;;;;;;12.78;81.49;99983.05;2141589;81;21111;-84
2021/08/28 07:01:27;;;;;;;8.03;6.30;;;;;;;12.81;81.76;99987.66;2087719;82;21010;-85
2021/08/28 07:04:40;;;;;;;9.58;6.58;;;;;;;12.90;81.58;99987.39;2154220;81;20968;-85
2021/08/28 07:07:51;;;;;;;9.53;6.67;;;;;;;13.03;81.52;99988.56;2164592;81;21002;-86
2021/08/28 07:10:53;;;;;;;8.28;6.53;;;;;;;13.16;81.57;99986.07;2159130;81;21054;-85
2021/08/28 07:13:55;;;;;;;11.63;7.83;;;;;;;13.24;81.21;99985.97;2181762;80;21024;-87
2021/08/28 07:16:56;;;;;;;13.00;8.65;;;;;;;13.37;81.47;99989.30;2174777;80;21553;-86
2021/08/28 07:19:57;;;;;;;10.98;7.53;;;;;;;13.54;81.41;99992.05;2186625;79;21003;-86
2021/08/28 07:22:59;;;;;;;14.93;7.55;;;;;;;13.57;80.93;99997.03;2186883;80;21051;-86
2021/08/28 07:26:11;;;;;;;9.83;7.53;;;;;;;13.55;80.70;99993.72;2141400;80;21038;-86
2021/08/28 07:29:13;;;;;;;10.18;7.25;;;;;;;13.65;80.94;99986.73;2186972;80;21796;-87
2021/08/28 07:32:18;;;;;;;9.73;7.92;;;;;;;13.82;81.35;99985.45;2196983;80;21027;-87
2021/08/28 07:35:20;;;;;;;9.48;6.85;;;;;;;14.05;81.49;99984.42;2189416;80;21083;-88
2021/08/28 07:38:21;;;;;;;11.50;8.03;;;;;;;14.29;81.24;99986.68;2185535;80;21022;-85
2021/08/28 07:41:22;;;;;;;10.10;8.43;;;;;;;14.53;81.07;99985.45;2186279;80;21030;-84
2021/08/28 07:44:24;;;;;;;10.20;7.47;;;;;;;14.73;80.59;99982.90;2174006;80;21249;-86
2021/08/28 07:47:25;;;;;;;9.18;7.70;;;;;;;14.85;80.48;99984.49;2191363;80;21052;-86
2021/08/28 07:50:27;;;;;;;8.55;6.17;;;;;;;15.07;80.17;99989.23;2185603;80;21026;-85
2021/08/28 07:53:29;;;;;;;8.60;7.50;;;;;;;15.23;79.39;99984.03;2189286;80;21563;-88
2021/08/28 07:56:32;;;;;;;11.08;7.10;;;;;;;15.36;78.89;99985.42;2185389;80;21496;-85
2021/08/28 07:59:34;;;;;;;10.65;6.72;;;;;;;15.44;78.25;99984.42;2190940;80;20975;-85
2021/08/28 08:02:36;;;;;;;8.35;6.45;;;;;;;15.51;77.83;99983.91;2190589;80;21626;-88
2021/08/28 08:05:38;;;;;;;10.32;7.15;;;;;;;15.67;77.75;99982.72;2180684;80;21101;-85
2021/08/28 08:08:48;;;;;;;8.53;7.33;;;;;;;15.89;77.13;99978.05;2184081;80;21369;-85
2021/08/28 08:12:08;;;;;;;7.97;6.42;;;;;;;16.14;77.47;99983.09;2196340;80;21059;-87
2021/08/28 08:15:14;;;;;;;10.25;7.28;;;;;;;16.53;76.86;99980.59;2126833;81;21014;-86
2021/08/28 08:18:34;;;;;;;10.35;6.65;;;;;;;16.94;77.18;99988.33;2148118;81;21043;-86
2021/08/28 08:21:53;;;;;;;7.15;6.45;;;;;;;17.45;76.43;99982.11;2172403;79;21692;-87
2021/08/28 08:25:06;;;;;;;7.78;6.90;;;;;;;18.00;75.55;99978.09;2158996;81;21055;-85
2021/08/28 08:28:15;;;;;;;8.35;6.70;;;;;;;18.68;74.98;99969.19;2134499;81;21015;-87
2021/08/28 08:31:35;;;;;;;6.67;5.97;;;;;;;19.22;73.75;99977.75;2167167;79;21538;-86
2021/08/28 08:34:38;;;;;;;6.20;5.60;;;;;;;19.51;72.66;99973.95;2161958;81;21009;-87
2021/08/28 08:37:41;;;;;;;7.03;4.55;;;;;;;19.94;71.54;99974.28;2169012;80;21019;-87
2021/08/28 08:40:43;;;;;;;6.03;4.78;;;;;;;20.29;71.14;99970.80;2152101;81;21318;-86
2021/08/28 08:43:47;;;;;;;5.90;5.15;;;;;;;20.79;70.55;99968.97;2165180;81;21155;-87
2021/08/28 08:46:49;;;;;;;6.37;4.83;;;;;;;21.15;68.71;99976.45;2168260;80;21067;-86
2021/08/28 08:49:52;;;;;;;4.67;4.15;;;;;;;21.17;68.16;99975.66;2150078;79;20977;-87
2021/08/28 08:53:03;;;;;;;6.00;4.33;;;;;;;21.11;66.46;99971.23;2153185;81;21110;-86
2021/08/28 08:56:07;;;;;;;4.58;4.08;;;;;;;20.78;66.43;99968.70;2189869;81;21034;-85
2021/08/28 08:59:11;;;;;;;5.22;4.60;;;;;;;20.91;66.21;99972.45;2180279;81;21555;-86
2021/08/28 09:02:13;;;;;;;4.00;3.60;;;;;;;21.16;66.02;99974.84;2132808;81;21019;-86
2021/08/28 09:05:33;;;;;;;3.87;3.27;;;;;;;21.26;64.52;99980.45;2180751;81;21042;-87
2021/08/28 09:08:35;;;;;;;4.97;3.15;;;;;;;21.11;64.00;99977.98;2189014;81;21525;-86
2021/08/28 09:11:36;;;;;;;4.80;3.60;;;;;;;20.72;61.79;99983.09;2174351;79;21077;-85
2021/08/28 09:14:38;;;;;;;4.08;3.40;;;;;;;20.54;62.97;99983.53;2164394;81;21044;-87
2021/08/28 09:17:43;;;;;;;3.15;2.85;;;;;;;20.46;62.35;99979.81;2163927;81;21060;-87
2021/08/28 09:20:44;;;;;;;2.80;2.60;;;;;;;20.55;62.58;99981.14;2172264;80;21049;-85
2021/08/28 09:23:46;;;;;;;4.28;2.72;;;;;;;20.48;61.20;99983.63;2161825;81;20984;-87
2021/08/28 09:26:48;;;;;;;3.90;2.67;;;;;;;20.54;61.25;99981.37;2174962;81;21436;-87
2021/08/28 09:29:49;;;;;;;3.52;2.83;;;;;;;20.44;60.91;99981.94;2163737;81;21620;-87
2021/08/28 09:32:58;;;;;;;3.30;2.65;;;;;;;20.34;61.45;99987.08;2145021;81;21553;-85
2021/08/28 09:36:02;;;;;;;4.00;2.90;;;;;;;20.54;60.67;99982.18;2122905;82;21051;-88
2021/08/28 09:39:03;;;;;;;3.08;2.83;;;;;;;20.65;60.34;99979.72;2161546;80;21052;-86
2021/08/28 09:42:05;;;;;;;3.45;2.55;;;;;;;20.74;59.82;99984.50;2175153;81;21437;-87
2021/08/28 09:45:12;;;;;;;4.33;2.70;;;;;;;20.65;59.95;99981.07;2148742;81;21558;-87
2021/08/28 09:48:16;;;;;;;3.25;2.33;;;;;;;20.47;59.62;99984.16;2177631;81;21018;-87
2021/08/28 09:51:19;;;;;;;2.40;2.20;;;;;;;20.43;59.96;99983.51;2162384;81;21068;-86
2021/08/28 09:54:22;;;;;;;5.15;2.72;;;;;;;20.47;60.03;99990.05;2170884;80;21084;-87
2021/08/28 09:57:28;;;;;;;2.33;2.12;;;;;;;20.12;59.41;99994.37;2176554;81;21568;-87
2021/08/28 10:00:33;;;;;;;3.00;2.17;;;;;;;19.93;59.46;99991.47;2159055;81;21672;-87
2021/08/28 10:03:34;;;;;;;2.25;2.05;;;;;;;19.83;59.63;99985.85;2170768;80;21016;-86
2021/08/28 10:06:41;;;;;;;3.27;2.08;;;;;;;19.74;59.62;99993.94;2165809;81;21519;-87
2021/08/28 10:09:42;;;;;;;2.33;1.57;;;;;;;19.66;59.53;99993.23;2165168;79;21319;-86
2021/08/28 10:12:45;;;;;;;1.75;1.50;;;;;;;19.63;59.37;99989.62;2150106;81;21495;-87
2021/08/28 10:15:48;;;;;;;2.33;1.65;;;;;;;19.62;59.43;99985.80;2183523;80;21042;-87
2021/08/28 10:18:50;;;;;;;1.60;1.47;;;;;;;19.66;59.63;99992.42;2178641;80;21142;-87
2021/08/28 10:21:53;;;;;;;2.83;1.82;;;;;;;19.81;59.47;99990.64;2189798;80;21006;-85
2021/08/28 10:24:58;;;;;;;1.90;1.80;;;;;;;19.60;58.40;99996.81;2190434;80;21073;-85
2021/08/28 10:28:01;;;;;;;2.25;1.87;;;;;;;19.56;59.22;99996.96;2182443;80;21054;-87
2021/08/28 10:31:04;;;;;;;2.77;2.22;;;;;;;19.56;58.23;99994.27;2185497;80;21063;-87
2021/08/28 10:34:05;;;;;;;2.30;2.10;;;;;;;19.35;58.85;99997.48;2192403;80;22178;-87
2021/08/28 10:37:06;;;;;;;2.10;1.75;;;;;;;19.36;58.94;99992.38;2190208;80;20970;-87
2021/08/28 10:40:22;;;;;;;4.97;1.82;;;;;;;19.46;58.58;99985.95;2188560;80;21280;-86
2021/08/28 10:43:25;;;;;;;1.52;1.40;;;;;;;19.57;58.83;99985.66;2175783;80;21154;-87
2021/08/28 10:46:30;;;;;;;2.60;1.70;;;;;;;19.74;59.01;99988.56;2196399;80;20983;-87
2021/08/28 10:49:52;;;;;;;1.92;1.50;;;;;;;19.85;58.50;99987.27;2195777;80;21101;-86
2021/08/28 10:52:56;;;;;;;1.35;1.25;;;;;;;19.88;58.20;99985.45;2188633;80;21046;-89
2021/08/28 10:55:59;;;;;;;3.08;1.32;;;;;;;19.96;58.16;99989.66;2193682;80;21014;-86
2021/08/28 10:59:32;;;;;;;1.60;1.50;;;;;;;19.90;57.88;99987.90;2185657;80;20979;-87
2021/08/28 11:02:56;;;;;;;1.30;1.20;;;;;;;19.92;57.43;99983.11;2184151;79;20971;-86
2021/08/28 11:06:19;;;;;;;1.25;1.15;;;;;;;19.84;57.09;99986.13;2186223;80;21521;-86
2021/08/28 11:09:26;;;;;;;1.40;1.30;;;;;;;19.89;57.34;99984.92;2182628;80;21058;-87
2021/08/28 11:12:27;;;;;;;1.27;1.10;;;;;;;19.84;56.81;99978.06;2185303;80;22247;-86
2021/08/28 11:15:37;;;;;;;1.67;1.57;;;;;;;19.61;57.11;99980.95;2176398;80;21097;-87
2021/08/28 11:18:43;;;;;;;2.20;1.20;;;;;;;19.58;57.69;99984.10;2182190;80;21534;-87
2021/08/28 11:21:48;;;;;;;1.50;1.40;;;;;;;19.62;57.10;99979.89;2189841;80;21477;-87
2021/08/28 11:24:58;;;;;;;2.02;1.70;;;;;;;19.73;56.74;99989.62;2195858;80;20998;-86
2021/08/28 11:28:00;;;;;;;2.37;2.05;;;;;;;19.79;56.71;99987.34;2162208;80;21067;-86
2021/08/28 11:31:01;;;;;;;1.90;1.80;;;;;;;19.88;56.30;99988.14;2162420;81;21026;-86
2021/08/28 11:34:07;;;;;;;1.72;1.55;;;;;;;19.89;56.29;99988.43;2159745;80;20982;-87
2021/08/28 11:37:35;;;;;;;2.00;1.85;;;;;;;19.81;56.20;99987.95;2168704;80;21461;-85
2021/08/28 11:40:36;;;;;;;2.00;1.50;;;;;;;19.90;56.25;99987.90;2149622;80;21003;-86
2021/08/28 11:43:44;;;;;;;1.30;1.20;;;;;;;20.12;56.49;99988.98;2131924;80;21579;-86
2021/08/28 11:46:47;;;;;;;2.15;1.85;;;;;;;20.30;56.19;100000.71;2163841;80;21112;-88
2021/08/28 11:49:53;;;;;;;1.32;1.10;;;;;;;20.32;56.48;99987.84;2171786;80;20987;-86
2021/08/28 11:52:55;;;;;;;2.52;1.30;;;;;;;20.43;55.61;99991.06;2152991;80;21433;-87
2021/08/28 11:56:13;;;;;;;1.42;1.15;;;;;;;20.64;55.50;99988.84;2169828;80;21842;-89
2021/08/28 11:59:15;;;;;;;1.95;1.42;;;;;;;20.90;54.80;99983.49;2155076;80;21529;-86
2021/08/28 12:02:23;;;;;;;4.53;1.60;;;;;;;21.11;55.19;99988.77;2131344;82;21561;-86
2021/08/28 12:05:24;;;;;;;1.50;1.40;;;;;;;21.21;54.77;99988.98;2134680;82;21031;-87
2021/08/28 12:08:26;;;;;;;2.52;1.67;;;;;;;21.25;54.54;99990.12;2126791;82;21082;-88
2021/08/28 12:11:28;;;;;;;1.32;1.22;;;;;;;21.30;54.29;99990.23;2163851;80;21069;-87
2021/08/28 12:14:32;;;;;;;3.67;1.87;;;;;;;21.39;54.25;99987.45;2178590;80;21082;-87
2021/08/28 12:17:34;;;;;;;1.80;1.47;;;;;;;21.35;54.21;99995.73;2144683;80;21052;-85
2021/08/28 12:20:35;;;;;;;1.50;1.40;;;;;;;21.27;53.80;99993.41;2174262;80;21639;-87
2021/08/28 12:23:36;;;;;;;1.22;1.12;;;;;;;21.25;53.54;99990.94;2153330;79;21577;-87
2021/08/28 12:26:37;;;;;;;2.37;1.75;;;;;;;21.24;53.22;99995.24;2158290;81;20980;-87
2021/08/28 12:29:45;;;;;;;1.80;1.50;;;;;;;21.31;53.86;99989.69;2187229;80;20997;-87
2021/08/28 12:32:46;;;;;;;2.30;1.07;;;;;;;21.27;53.10;99984.78;2150547;81;20999;-85
2021/08/28 12:35:47;;;;;;;1.02;1.02;;;;;;;21.31;53.44;99984.30;2145499;82;21046;-86
2021/08/28 12:38:49;;;;;;;1.30;1.20;;;;;;;21.38;53.09;99989.06;2139953;82;21024;-86
2021/08/28 12:41:50;;;;;;;1.05;1.05;;;;;;;21.37;52.52;99981.51;2139876;82;21022;-87
2021/08/28 12:45:03;;;;;;;1.20;1.10;;;;;;;21.25;52.23;99984.19;2142908;82;21503;-88
2021/08/28 12:48:05;;;;;;;1.35;1.25;;;;;;;21.26;53.13;99977.76;2138629;81;21055;-86
2021/08/28 12:51:10;;;;;;;1.75;1.30;;;;;;;21.28;51.81;99971.56;2136499;81;21064;-86
2021/08/28 12:54:24;;;;;;;1.10;1.00;;;;;;;21.10;52.04;99973.65;2142665;81;20990;-87
2021/08/28 12:57:30;;;;;;;1.27;1.17;;;;;;;20.84;52.77;99970.44;2162763;80;21014;-87
2021/08/28 13:00:36;;;;;;;2.00;1.40;;;;;;;20.96;52.49;99967.17;2140858;81;21026;-87
2021/08/28 13:03:43;;;;;;;2.00;1.15;;;;;;;21.08;52.42;99967.12;2132247;81;21520;-87
2021/08/28 13:07:08;;;;;;;2.98;1.30;;;;;;;20.92;51.95;99967.38;2180478;80;21516;-87
2021/08/28 13:10:12;;;;;;;3.25;1.12;;;;;;;20.94;52.07;99963.88;2170930;80;21274;-86
2021/08/28 13:13:13;;;;;;;1.10;0.90;;;;;;;20.96;52.44;99962.31;2155019;80;21596;-86
2021/08/28 13:16:18;;;;;;;2.00;1.20;;;;;;;21.07;52.88;99961.98;2137233;81;21572;-88
2021/08/28 13:19:19;;;;;;;1.40;1.30;;;;;;;21.08;52.12;99963.62;2134005;82;21566;-87
2021/08/28 13:22:24;;;;;;;1.37;1.27;;;;;;;21.14;52.84;99955.91;2137655;81;21048;-88
2021/08/28 13:25:28;;;;;;;1.50;1.40;;;;;;;21.03;51.46;99953.53;2152706;81;20983;-88
2021/08/28 13:28:34;;;;;;;2.42;1.15;;;;;;;20.59;51.80;99957.23;2146986;82;21006;-88
2021/08/28 13:31:35;;;;;;;1.10;1.07;;;;;;;20.53;51.94;99958.98;2135378;80;21583;-86
2021/08/28 13:34:49;;;;;;;2.02;1.50;;;;;;;20.52;51.71;99958.65;2147196;81;21021;-87
2021/08/28 13:37:51;;;;;;;1.17;1.10;;;;;;;20.52;52.04;99949.22;2141892;82;21559;-86
2021/08/28 13:40:53;;;;;;;1.25;1.15;;;;;;;20.70;52.40;99950.19;2143844;82;21507;-88
2021/08/28 13:43:54;;;;;;;1.55;1.45;;;;;;;20.96;52.39;99956.38;2144024;81;21050;-86
2021/08/28 13:46:56;;;;;;;1.47;1.37;;;;;;;21.14;52.00;99953.22;2139682;81;20962;-87
2021/08/28 13:49:57;;;;;;;1.15;1.15;;;;;;;21.32;52.10;99953.03;2151804;81;21097;-87
2021/08/28 13:52:59;;;;;;;1.87;1.30;;;;;;;21.49;51.58;99953.92;2145523;82;20974;-87
2021/08/28 13:56:00;;;;;;;1.92;1.02;;;;;;;21.54;51.34;99957.25;2150129;81;21056;-87
2021/08/28 13:59:01;;;;;;;1.50;1.10;;;;;;;21.57;51.75;99957.27;2150861;81;20995;-87
2021/08/28 14:02:03;;;;;;;1.40;1.30;;;;;;;21.37;50.79;99953.17;2147677;82;21018;-89
2021/08/28 14:05:07;;;;;;;1.10;1.00;;;;;;;21.16;51.41;99953.80;2148891;81;21015;-87
2021/08/28 14:08:08;;;;;;;1.47;1.22;;;;;;;21.14;51.13;99957.27;2152139;82;21042;-88
2021/08/28 14:11:09;;;;;;;1.55;1.10;;;;;;;20.98;50.14;99954.27;2152225;82;20999;-88
2021/08/28 14:14:10;;;;;;;2.10;1.42;;;;;;;20.77;50.31;99952.20;2143170;81;21018;-87
2021/08/28 14:17:11;;;;;;;2.25;1.60;;;;;;;20.48;50.64;99957.50;2177184;80;21597;-87
2021/08/28 14:20:20;;;;;;;1.80;1.30;;;;;;;20.34;51.45;99956.09;2135741;81;21035;-86
2021/08/28 14:23:19;;;;;;;1.05;0.95;;;;;;;20.25;51.57;99954.28;2129093;82;21042;-87
2021/08/28 14:26:20;;;;;;;0.80;0.80;;;;;;;20.25;51.74;99954.81;2146801;81;21488;-87
2021/08/28 14:29:22;;;;;;;3.02;0.90;;;;;;;20.11;52.01;99955.57;2146212;80;20961;-86
2021/08/28 14:32:23;;;;;;;1.10;1.00;;;;;;;20.01;52.01;99957.48;2144281;81;21056;-87